3TX0 weather

Texas Department of Public Safety Heliport
Corpus Christi, Texas, United States

Public forecast

Using degrees Fahrenheit for public forecast. Weather courtesy of forecast.io.

Closest aviation weather report (METAR) to Texas Department of Public Safety Heliport

Closest report is Corpus Christi International Airport, 3.9 nm (7.3 km) WNW. Retrieved 2019/12/06 17:42 UTC (5 minutes ago):

KCRP 061742Z 34012KT 10SM FEW018 SCT027 BKN032 BKN250 26/18 A3015

Closest aviation forecast (TAF) to Texas Department of Public Safety Heliport

Closest forecast is Corpus Christi International Airport, 3.9 nm (7.3 km) WNW. Retrieved 2019/12/06 12:30 UTC (5 hours ago):

TAF KCRP 061129Z 0612/0712 15007KT 5SM BR OVC010 FM061500 35010KT P6SM BKN012 FM061700 36011KT P6SM FEW250